Time;durP1;ratioP1;P1;durP2;ratioP2;P2;SDS_P1;SDS_P2;PMS_P1;PMS_P2;Temp;Humidity;BMP_temperature;BMP_pressure;BME280_temperature;BME280_humidity;BME280_pressure;Samples;Min_cycle;Max_cycle;Signal;HPM_P1;HPM_P2
2021/03/17 00:08:47;;;;;;;3.75;2.47;;;;;;;6.12;58.18;97486.31;4922740;29;20044;-80
2021/03/17 02:16:01;;;;;;;6.35;4.20;;;;;;;5.83;61.31;97453.44;5862094;23;20011;-77
2021/03/17 02:22:25;;;;;;;8.13;4.78;;;;;;;5.80;61.76;97461.16;4913230;29;20087;-79
2021/03/17 02:25:29;;;;;;;4.88;4.03;;;;;;;5.79;62.08;97467.56;4905374;29;20036;-79
2021/03/17 02:46:38;;;;;;;5.85;4.70;;;;;;;5.83;60.94;97455.31;5431562;23;20084;-80
2021/03/17 04:47:13;;;;;;;6.25;4.35;;;;;;;5.83;59.09;97481.84;5598417;23;20055;-82
2021/03/17 04:49:49;;;;;;;5.70;3.75;;;;;;;5.81;58.64;97484.78;4943837;28;20058;-80
2021/03/17 04:52:17;;;;;;;6.93;4.72;;;;;;;5.81;58.31;97478.66;4927522;29;20524;-77
2021/03/17 04:54:43;;;;;;;6.63;4.32;;;;;;;5.82;58.71;97477.59;4935460;29;20028;-79
2021/03/17 05:04:01;;;;;;;6.45;4.28;;;;;;;5.85;58.26;97487.66;4889221;29;20063;-81
2021/03/17 05:06:31;;;;;;;5.93;3.97;;;;;;;5.86;58.21;97482.06;4958455;23;20060;-81
2021/03/17 05:21:33;;;;;;;4.85;3.97;;;;;;;5.94;57.62;97483.28;4893409;29;20109;-80
2021/03/17 05:24:23;;;;;;;7.35;4.03;;;;;;;5.97;57.20;97496.00;4877495;29;20425;-79
2021/03/17 15:38:37;;;;;;;7.00;4.43;;;;;;;4.81;69.39;97928.31;5193419;23;20040;-80
2021/03/17 15:43:40;;;;;;;5.18;4.10;;;;;;;4.78;69.35;97920.88;5200912;23;20056;-78
2021/03/17 15:46:05;;;;;;;6.60;4.55;;;;;;;4.78;69.34;97928.03;4903482;29;20550;-79
2021/03/17 15:51:26;;;;;;;8.23;4.57;;;;;;;4.79;69.07;97927.00;5473442;23;20088;-80
2021/03/17 15:53:52;;;;;;;5.60;4.72;;;;;;;4.77;69.34;97934.41;5054127;23;20060;-78
2021/03/17 15:56:17;;;;;;;5.63;4.00;;;;;;;4.77;68.87;97935.22;4921383;29;20028;-79
2021/03/17 15:58:46;;;;;;;5.53;4.18;;;;;;;4.72;68.97;97926.47;5777330;23;20015;-79
2021/03/17 16:01:31;;;;;;;7.60;4.45;;;;;;;4.76;68.85;97932.81;5030044;23;20063;-79
2021/03/17 16:06:35;;;;;;;5.40;3.97;;;;;;;4.74;69.02;97945.53;5114531;23;20060;-82
2021/03/17 16:43:15;;;;;;;10.60;5.70;;;;;;;4.66;69.26;97968.03;6027922;23;20279;31
2021/03/17 17:05:10;;;;;;;4.38;3.83;;;;;;;4.62;69.56;98002.19;6010255;23;20031;-81
2021/03/17 18:43:54;;;;;;;6.28;3.15;;;;;;;4.53;67.91;98024.94;5683989;23;20094;31
2021/03/17 18:52:11;;;;;;;2.88;2.63;;;;;;;4.52;67.34;98006.66;5598577;23;20618;-82
2021/03/17 18:54:38;;;;;;;6.30;3.78;;;;;;;4.59;67.71;98031.03;5369764;23;20055;31
2021/03/17 18:57:05;;;;;;;5.00;4.03;;;;;;;4.58;67.47;98032.91;4921260;29;20110;-78
2021/03/17 18:59:31;;;;;;;5.95;3.25;;;;;;;4.63;67.05;98032.91;4921633;29;20035;-78
2021/03/17 19:02:22;;;;;;;6.22;3.55;;;;;;;4.66;66.87;98026.28;5226721;23;20104;-81
2021/03/17 19:15:04;;;;;;;3.80;3.05;;;;;;;4.79;66.57;98036.38;6001836;23;20026;31
2021/03/17 19:17:30;;;;;;;3.97;3.28;;;;;;;4.81;66.11;98034.28;4902118;29;19919;-80
2021/03/17 19:20:06;;;;;;;5.18;3.35;;;;;;;4.84;66.06;98027.66;4894134;29;20096;-84
2021/03/17 19:22:31;;;;;;;4.18;2.90;;;;;;;4.84;66.05;98040.09;4902735;29;20143;-77
2021/03/17 19:24:57;;;;;;;3.72;2.88;;;;;;;4.88;65.77;98046.47;4899450;29;20021;-81
2021/03/17 19:27:22;;;;;;;4.63;3.50;;;;;;;4.90;65.52;98045.13;4883651;29;20072;-81
2021/03/17 19:29:48;;;;;;;6.63;3.55;;;;;;;4.93;65.57;98055.22;4903342;29;20469;-80
2021/03/17 19:32:14;;;;;;;5.05;3.38;;;;;;;4.93;65.54;98049.94;4890412;29;20029;-82
2021/03/17 19:34:39;;;;;;;5.88;3.75;;;;;;;4.95;65.26;98050.44;4893439;29;20043;-77
2021/03/17 19:37:07;;;;;;;5.88;3.15;;;;;;;4.99;65.45;98058.66;4903996;29;20040;-81
2021/03/17 19:39:36;;;;;;;6.00;3.35;;;;;;;5.00;65.06;98048.88;4888749;29;20119;-78
2021/03/17 19:42:03;;;;;;;4.25;3.08;;;;;;;5.01;65.04;98056.53;4903251;29;20060;-76
2021/03/17 19:44:29;;;;;;;4.57;3.15;;;;;;;5.03;65.12;98064.22;4885994;29;20392;-79
2021/03/17 19:46:54;;;;;;;4.18;2.80;;;;;;;5.04;64.70;98049.91;4904409;29;20021;-81
2021/03/17 19:49:20;;;;;;;5.97;3.35;;;;;;;5.04;64.92;98065.81;4902670;29;20084;-81
2021/03/17 19:51:45;;;;;;;3.50;2.92;;;;;;;5.04;64.67;98060.53;4883808;29;20119;-78
2021/03/17 19:54:11;;;;;;;3.28;2.92;;;;;;;5.07;64.68;98060.78;4882766;29;20280;-80
2021/03/17 19:56:36;;;;;;;4.22;2.72;;;;;;;5.09;64.54;98063.16;4884405;29;20039;-78
2021/03/17 19:59:03;;;;;;;4.10;2.53;;;;;;;5.09;64.49;98057.88;4876563;29;20040;-76
2021/03/17 20:01:28;;;;;;;4.43;3.03;;;;;;;5.11;64.51;98063.72;4902791;29;20051;-79
2021/03/17 20:03:54;;;;;;;3.97;2.45;;;;;;;5.11;64.10;98059.22;4894415;29;20458;-78
2021/03/17 20:06:20;;;;;;;3.13;2.83;;;;;;;5.10;64.27;98059.47;4894683;29;20057;-80
2021/03/17 20:08:46;;;;;;;3.70;2.97;;;;;;;5.12;64.49;98071.38;4885614;29;20029;-78
2021/03/17 20:11:14;;;;;;;4.20;3.15;;;;;;;5.12;64.07;98070.59;4896295;29;20068;-78
2021/03/17 20:13:40;;;;;;;6.20;3.20;;;;;;;5.14;64.62;98076.44;4885490;29;20040;-81
2021/03/17 20:16:06;;;;;;;3.60;2.92;;;;;;;5.12;64.50;98074.03;4888466;29;20045;-80
2021/03/17 20:18:32;;;;;;;4.13;2.85;;;;;;;5.16;64.55;98073.53;4918000;29;20492;-78
2021/03/17 20:20:57;;;;;;;2.92;2.40;;;;;;;5.18;64.27;98074.06;4917842;29;20035;-80
2021/03/17 20:23:23;;;;;;;3.28;2.67;;;;;;;5.18;64.21;98077.50;4899926;29;20024;-78
2021/03/17 20:25:51;;;;;;;3.80;2.83;;;;;;;5.19;64.38;98086.22;4906507;29;20025;-81
2021/03/17 20:28:20;;;;;;;4.85;3.20;;;;;;;5.18;64.73;98080.16;4914434;29;20052;-81
2021/03/17 20:30:45;;;;;;;4.00;2.80;;;;;;;5.18;64.47;98082.03;4914715;29;20087;-82
2021/03/17 20:33:26;;;;;;;4.95;3.25;;;;;;;5.19;64.97;98099.50;4917510;29;20073;-79
2021/03/17 20:35:53;;;;;;;2.78;2.40;;;;;;;5.17;64.97;98088.38;4912330;29;20108;-82
2021/03/17 20:38:19;;;;;;;3.80;2.60;;;;;;;5.15;64.77;98088.66;4916477;29;20021;-80
2021/03/17 20:40:49;;;;;;;2.42;2.22;;;;;;;5.16;64.75;98100.03;4912101;29;20112;-82
2021/03/17 20:43:21;;;;;;;3.53;2.58;;;;;;;5.15;64.72;98093.13;4913557;29;20037;-80
2021/03/17 20:45:48;;;;;;;3.30;2.70;;;;;;;5.16;65.02;98100.81;4922102;29;20168;-79
2021/03/17 20:48:24;;;;;;;3.33;2.50;;;;;;;5.16;64.82;98095.50;4924089;29;20025;-82
2021/03/17 20:50:51;;;;;;;3.88;2.88;;;;;;;5.15;64.76;98099.25;5794859;23;20018;-80
2021/03/17 20:53:17;;;;;;;3.45;2.75;;;;;;;5.15;64.76;98093.13;4905688;29;20102;-78
2021/03/17 20:55:55;;;;;;;3.60;2.88;;;;;;;5.16;64.86;98097.38;4893162;29;20019;-82
2021/03/17 20:58:41;;;;;;;2.78;2.47;;;;;;;5.16;64.50;98097.38;4894755;29;20116;-79
2021/03/17 21:01:09;;;;;;;1.95;1.70;;;;;;;5.12;64.83;98097.91;4883667;29;20048;-76
2021/03/17 21:03:36;;;;;;;3.05;2.22;;;;;;;5.13;64.50;98101.34;4881015;29;20535;-77
2021/03/17 21:06:06;;;;;;;3.80;2.47;;;;;;;5.11;64.91;98096.31;4881338;29;20484;-77
2021/03/17 21:08:33;;;;;;;2.33;2.20;;;;;;;5.15;64.80;98095.78;4898150;29;20016;-77
2021/03/17 21:10:59;;;;;;;4.68;2.80;;;;;;;5.15;64.59;98104.56;4896857;29;20028;-77
2021/03/17 21:13:25;;;;;;;4.00;2.63;;;;;;;5.15;64.58;98106.38;4897494;29;20552;-77
2021/03/17 21:15:51;;;;;;;2.78;2.55;;;;;;;5.17;64.64;98104.28;4896992;29;20028;-77
2021/03/17 21:18:18;;;;;;;1.77;1.65;;;;;;;5.12;64.46;98100.53;4897646;29;20421;-77
2021/03/17 21:20:47;;;;;;;3.20;1.90;;;;;;;5.18;64.29;98104.00;4890180;29;20625;-80
2021/03/17 21:23:16;;;;;;;3.28;2.20;;;;;;;5.17;64.27;98099.75;4885526;29;20079;-77
2021/03/17 21:26:37;;;;;;;2.20;1.98;;;;;;;5.17;64.50;98105.06;4887485;29;20609;-81
2021/03/17 21:29:23;;;;;;;2.25;1.92;;;;;;;5.16;64.41;98108.75;4883980;29;20115;-78
2021/03/17 21:31:49;;;;;;;2.53;2.05;;;;;;;5.15;64.46;98115.16;4863902;29;20059;-76
2021/03/17 21:34:15;;;;;;;2.35;2.15;;;;;;;5.15;64.25;98104.56;4889666;29;20070;-77
2021/03/17 21:36:41;;;;;;;1.98;1.80;;;;;;;5.14;64.56;98126.81;4892336;29;20507;-76
2021/03/17 21:39:08;;;;;;;1.70;1.60;;;;;;;5.10;64.49;98117.78;4881141;29;20029;-77
2021/03/17 21:41:34;;;;;;;4.13;1.75;;;;;;;5.12;64.47;98120.97;4898544;29;20028;-77
2021/03/17 21:44:00;;;;;;;2.80;2.00;;;;;;;5.10;64.68;98120.41;4900124;29;20028;-80
2021/03/17 21:46:25;;;;;;;2.22;2.03;;;;;;;5.09;64.56;98118.81;4900708;29;20094;-79
2021/03/17 21:48:51;;;;;;;2.88;2.30;;;;;;;5.08;64.42;98118.03;4867474;29;20469;-79
2021/03/17 21:51:18;;;;;;;2.05;1.80;;;;;;;5.08;64.79;98122.56;4865910;29;20053;-79
2021/03/17 21:54:21;;;;;;;2.03;1.90;;;;;;;5.07;64.76;98131.56;4864411;29;20033;-81
2021/03/17 21:56:51;;;;;;;3.10;1.77;;;;;;;5.09;65.05;98124.13;4885123;29;20036;-82
2021/03/17 21:59:19;;;;;;;3.15;1.80;;;;;;;5.07;64.92;98132.34;4857495;29;20481;-80
2021/03/17 22:01:45;;;;;;;1.80;1.63;;;;;;;5.03;65.29;98118.03;4881595;29;20038;-79
2021/03/17 22:04:11;;;;;;;2.25;1.70;;;;;;;5.02;65.25;98135.00;4880126;29;20032;-78
2021/03/17 22:13:56;;;;;;;2.42;2.03;;;;;;;5.00;65.56;98118.53;4876964;29;20222;-81
2021/03/17 22:31:09;;;;;;;1.55;1.35;;;;;;;4.94;65.63;98120.41;4927954;23;20535;-81
2021/03/17 22:40:40;;;;;;;1.63;1.50;;;;;;;4.95;65.57;98132.56;4935625;29;20534;-80
2021/03/17 22:43:10;;;;;;;2.60;1.77;;;;;;;4.92;65.33;98133.13;4918274;29;20027;-80
2021/03/17 22:45:59;;;;;;;2.38;2.00;;;;;;;4.94;65.42;98130.19;4919571;29;20236;-80
2021/03/17 22:48:27;;;;;;;1.60;1.50;;;;;;;4.93;65.49;98129.41;4905540;29;20032;-80
2021/03/17 22:51:21;;;;;;;1.65;1.55;;;;;;;4.94;65.32;98128.34;4908681;29;20057;-80
2021/03/17 22:54:43;;;;;;;1.73;1.60;;;;;;;4.92;65.32;98130.47;4922917;29;20096;-80
2021/03/17 22:57:11;;;;;;;1.85;1.75;;;;;;;4.92;65.58;98137.59;4901977;29;20032;-80
2021/03/17 22:59:37;;;;;;;2.45;2.20;;;;;;;4.91;65.31;98133.38;4894234;29;20127;-79
2021/03/17 23:02:03;;;;;;;2.10;1.80;;;;;;;4.90;65.59;98145.81;4902500;29;20066;-79
2021/03/17 23:04:29;;;;;;;2.00;1.50;;;;;;;4.88;65.67;98132.06;4900093;29;20468;-78
2021/03/17 23:06:54;;;;;;;2.40;1.75;;;;;;;4.87;65.66;98140.25;4907784;29;20020;-78
2021/03/17 23:09:48;;;;;;;1.98;1.55;;;;;;;4.88;65.83;98136.53;4913269;29;20023;-78
2021/03/17 23:12:35;;;;;;;2.65;1.40;;;;;;;4.86;65.66;98138.63;4917783;29;20555;-80
2021/03/17 23:16:14;;;;;;;1.55;1.45;;;;;;;4.85;65.82;98145.03;4911631;29;20099;-80
2021/03/17 23:19:05;;;;;;;2.55;1.70;;;;;;;4.81;65.53;98145.53;4893663;29;20095;-78
2021/03/17 23:21:32;;;;;;;3.40;1.95;;;;;;;4.81;65.76;98139.44;4881407;29;20456;-78
2021/03/17 23:24:13;;;;;;;2.10;1.77;;;;;;;4.79;65.56;98141.56;4883004;29;20037;-77
2021/03/17 23:26:44;;;;;;;2.28;1.67;;;;;;;4.78;65.78;98142.59;4892190;29;20500;-78
2021/03/17 23:29:17;;;;;;;1.60;1.35;;;;;;;4.77;65.48;98155.06;4901449;29;20035;-77
2021/03/17 23:31:43;;;;;;;1.55;1.42;;;;;;;4.74;65.76;98149.50;4884042;29;20028;-77
2021/03/17 23:34:15;;;;;;;3.75;1.73;;;;;;;4.77;65.81;98156.91;4903663;29;20404;-76
2021/03/17 23:36:41;;;;;;;1.88;1.77;;;;;;;4.78;65.75;98158.50;4899889;29;20555;-76
2021/03/17 23:39:16;;;;;;;1.92;1.73;;;;;;;4.75;65.72;98153.72;4916751;29;20092;-75
2021/03/17 23:41:41;;;;;;;2.92;2.00;;;;;;;4.76;65.72;98156.13;4883747;29;20032;-76
2021/03/17 23:44:09;;;;;;;3.17;2.67;;;;;;;4.76;65.78;98155.31;4905765;29;20044;-76
2021/03/17 23:46:36;;;;;;;3.63;2.17;;;;;;;4.78;65.15;98155.84;4891345;29;20133;-77
2021/03/17 23:49:04;;;;;;;3.20;2.60;;;;;;;4.77;65.43;98170.16;4918883;29;20294;-77
2021/03/17 23:51:30;;;;;;;3.10;1.90;;;;;;;4.77;65.93;98173.59;4918009;29;20040;-78
2021/03/17 23:53:57;;;;;;;2.08;1.88;;;;;;;4.79;65.66;98171.47;4884618;29;20048;-77
2021/03/17 23:56:24;;;;;;;2.38;2.00;;;;;;;4.79;65.86;98174.13;4886166;29;20056;-77
2021/03/17 23:58:50;;;;;;;2.08;1.80;;;;;;;4.82;65.32;98170.16;4901213;29;20036;-79
